This is the latest recevied weather packets stored in our database for station/object SQ3RAX-13. If no packets are shown the sender has not sent any weather packets the latest 10 day(s).
| Time | Temp. | Humidity | Pressure | Rain* | Wind** | Luminosity | Snow |
|---|---|---|---|---|---|---|---|
| 1777673700 | 10° C | 66% | 1025 hPa | 0 mm | - | - | - |
| 1777673100 | 10.56° C | 70% | 1026 hPa | 0 mm | - | - | - |
| 1777672500 | 10.56° C | 70% | 1026 hPa | 0 mm | - | - | - |
| 1777671900 | 10.56° C | 70% | 1026 hPa | 0 mm | - | - | - |
| 1777671300 | 10.56° C | 69% | 1026 hPa | 0 mm | - | - | - |
| 1777670700 | 11.11° C | 64% | 1025 hPa | 0 mm | - | - | - |
| 1777670100 | 11.67° C | 63% | 1025 hPa | 0 mm | - | - | - |
| 1777669500 | 12.22° C | 65% | 1026 hPa | 0 mm | - | - | - |
| 1777668900 | 12.78° C | 64% | 1026 hPa | 0 mm | - | - | - |
| 1777668300 | 12.78° C | 64% | 1026 hPa | 0 mm | - | - | - |
| 1777667700 | 12.78° C | 60% | 1025 hPa | 0 mm | - | - | - |
| 1777667100 | 13.89° C | 54% | 1026 hPa | 0 mm | - | - | - |
| 1777666500 | 13.89° C | 54% | 1026 hPa | 0 mm | - | - | - |
| 1777665900 | 13.89° C | 56% | 1026 hPa | 0 mm | - | - | - |
| 1777665300 | 14.44° C | 55% | 1026 hPa | 0 mm | - | - | - |
| 1777664700 | 14.44° C | 55% | 1026 hPa | 0 mm | - | - | - |
| 1777664100 | 15° C | 54% | 1026 hPa | 0 mm | - | - | - |
| 1777663500 | 15.56° C | 47% | 1026 hPa | 0 mm | - | - | - |
| 1777662900 | 16.67° C | 50% | 1026 hPa | 0 mm | - | - | - |
| 1777662300 | 16.67° C | 50% | 1026 hPa | 0 mm | - | - | - |
| 1777661700 | 16.67° C | 50% | 1026 hPa | 0 mm | - | - | - |
| 1777661100 | 16.67° C | 50% | 1026 hPa | 0 mm | - | - | - |
| 1777660500 | 16.67° C | 49% | 1026 hPa | 0 mm | - | - | - |
| 1777659900 | 18.89° C | 34% | 1025 hPa | 0 mm | - | - | - |
| 1777659300 | 18.89° C | 34% | 1025 hPa | 0 mm | - | - | - |
* Rain latest hour (hover to see other rain measurements)
** Current wind speed in m/s (hover to see current wind gust speed)